Time;durP1;ratioP1;P1;durP2;ratioP2;P2;SDS_P1;SDS_P2;PMS_P1;PMS_P2;Temp;Humidity;BMP_temperature;BMP_pressure;BME280_temperature;BME280_humidity;BME280_pressure;Samples;Min_cycle;Max_cycle;Signal;HPM_P1;HPM_P2
2022/10/21 00:01:45;;;;;;;31.10;20.13;;;12.30;99.90;;;;;;5130872;27;20038;-81
2022/10/21 00:04:11;;;;;;;33.67;18.73;;;12.30;99.90;;;;;;5123580;27;20035;-80
2022/10/21 00:06:37;;;;;;;32.47;19.02;;;12.30;99.90;;;;;;5109623;27;20110;-81
2022/10/21 00:09:03;;;;;;;29.40;18.92;;;12.30;99.90;;;;;;5123570;27;20133;-81
2022/10/21 00:11:29;;;;;;;32.25;19.27;;;12.30;99.90;;;;;;5141521;27;20046;-81
2022/10/21 00:13:55;;;;;;;29.55;19.55;;;12.30;99.90;;;;;;5121554;27;20483;-82
2022/10/21 00:16:21;;;;;;;31.75;18.63;;;12.30;99.90;;;;;;5127581;27;20110;-81
2022/10/21 00:18:48;;;;;;;29.05;19.48;;;12.20;99.90;;;;;;5157486;27;20038;-81
2022/10/21 00:21:19;;;;;;;30.77;18.73;;;12.20;99.90;;;;;;5151354;27;20103;-81
2022/10/21 00:23:47;;;;;;;29.83;19.15;;;12.20;99.90;;;;;;5137666;27;20054;-82
2022/10/21 00:26:14;;;;;;;28.92;19.65;;;12.20;99.90;;;;;;5124643;27;20039;-82
2022/10/21 00:28:40;;;;;;;33.38;19.95;;;12.20;99.90;;;;;;5148380;27;20043;-80
2022/10/21 00:31:11;;;;;;;31.63;18.42;;;12.20;99.90;;;;;;5132449;27;20080;-82
2022/10/21 00:33:38;;;;;;;30.70;19.27;;;12.20;99.90;;;;;;5136090;27;20031;-81
2022/10/21 00:36:06;;;;;;;26.67;18.38;;;12.20;99.90;;;;;;5136533;27;20038;-81
2022/10/21 00:38:33;;;;;;;32.10;19.05;;;12.20;99.90;;;;;;5156418;27;20062;-81
2022/10/21 00:40:59;;;;;;;32.40;19.58;;;12.20;99.90;;;;;;5139850;27;20385;-82
2022/10/21 00:43:26;;;;;;;29.40;18.08;;;12.20;99.90;;;;;;5102958;27;20039;-82
2022/10/21 00:45:58;;;;;;;26.85;18.02;;;12.20;99.90;;;;;;5136950;27;20039;-80
2022/10/21 00:48:29;;;;;;;28.13;18.02;;;12.10;99.90;;;;;;5155270;27;20035;-80
2022/10/21 00:51:00;;;;;;;30.73;18.83;;;12.10;99.90;;;;;;5155635;27;20043;-81
2022/10/21 00:53:26;;;;;;;31.73;19.02;;;12.20;99.90;;;;;;5139041;27;20386;-81
2022/10/21 00:55:56;;;;;;;27.38;18.73;;;12.10;99.90;;;;;;5152566;27;20034;-81
2022/10/21 00:58:26;;;;;;;31.05;18.83;;;12.10;99.90;;;;;;5154340;27;20053;-81
2022/10/21 01:00:54;;;;;;;31.08;19.10;;;12.10;99.90;;;;;;5136544;27;20420;-81
2022/10/21 01:03:22;;;;;;;26.38;18.05;;;12.10;99.90;;;;;;5116703;27;20042;-82
2022/10/21 01:05:49;;;;;;;27.08;17.77;;;12.10;99.90;;;;;;5114269;27;20071;-81
2022/10/21 01:08:15;;;;;;;28.23;18.75;;;12.00;99.90;;;;;;5115405;27;20070;-82
2022/10/21 01:10:42;;;;;;;26.40;17.05;;;12.00;99.90;;;;;;5134239;27;20052;-81
2022/10/21 01:13:32;;;;;;;29.38;18.63;;;12.00;99.90;;;;;;5135772;27;20035;-82
2022/10/21 01:16:16;;;;;;;25.88;17.85;;;12.00;99.90;;;;;;5135429;27;20042;-81
2022/10/21 01:19:19;;;;;;;29.02;17.52;;;12.00;99.90;;;;;;5137315;27;20046;-81
2022/10/21 01:21:55;;;;;;;28.98;18.67;;;12.00;99.90;;;;;;5133577;27;20042;-82
2022/10/21 01:24:26;;;;;;;28.08;19.05;;;12.00;99.90;;;;;;5134314;27;20122;-81
2022/10/21 01:27:20;;;;;;;27.15;16.98;;;12.00;99.90;;;;;;5137320;27;20038;-81
2022/10/21 01:30:16;;;;;;;29.42;18.92;;;12.00;99.90;;;;;;5135638;27;20039;-81
2022/10/21 01:33:08;;;;;;;31.08;19.60;;;12.00;99.90;;;;;;5131300;27;20047;-81
2022/10/21 01:35:38;;;;;;;33.25;19.58;;;12.10;99.90;;;;;;5127200;27;20061;-80
2022/10/21 01:38:16;;;;;;;35.88;19.02;;;12.10;99.90;;;;;;5137685;27;20127;-80
2022/10/21 01:40:50;;;;;;;37.88;18.77;;;12.10;99.90;;;;;;5153599;27;20038;-80
2022/10/21 01:43:39;;;;;;;32.47;18.70;;;12.10;99.90;;;;;;5136305;27;20066;-80
2022/10/21 01:46:14;;;;;;;28.92;18.83;;;12.20;99.90;;;;;;5133037;27;20070;-80
2022/10/21 01:48:46;;;;;;;32.83;19.33;;;12.20;99.90;;;;;;5136578;27;20038;-85
2022/10/21 01:51:13;;;;;;;39.00;19.63;;;12.20;99.90;;;;;;5137672;27;20053;-84
2022/10/21 01:54:00;;;;;;;32.53;20.15;;;12.20;99.90;;;;;;5153471;27;20042;-86
2022/10/21 01:56:26;;;;;;;;;;;12.30;99.90;;;;;;5130871;27;20069;-89
2022/10/21 01:58:53;;;;;;;35.17;19.65;;;12.40;99.90;;;;;;5123424;27;19923;-90
2022/10/21 02:01:20;;;;;;;36.28;20.52;;;12.40;99.90;;;;;;5116799;27;20042;-91
2022/10/21 02:03:51;;;;;;;39.63;22.60;;;12.40;99.90;;;;;;5119766;27;20050;-90
2022/10/21 02:06:17;;;;;;;45.85;22.75;;;12.60;99.90;;;;;;5137250;27;20065;-90
2022/10/21 02:08:43;;;;;;;38.53;21.63;;;12.60;99.90;;;;;;5104451;27;20518;-90
2022/10/21 02:11:11;;;;;;;37.70;23.08;;;12.80;99.90;;;;;;5104324;27;20043;-90
2022/10/21 02:13:50;;;;;;;37.25;21.70;;;12.80;99.90;;;;;;5132611;27;20039;-90
2022/10/21 02:16:20;;;;;;;36.28;20.85;;;12.80;99.90;;;;;;5138481;27;20039;-91
2022/10/21 02:18:46;;;;;;;36.50;20.88;;;12.90;99.90;;;;;;5136894;27;20420;-90
2022/10/21 02:21:20;;;;;;;41.63;21.67;;;12.90;99.90;;;;;;5102171;27;20035;-89
2022/10/21 02:24:04;;;;;;;41.25;22.35;;;13.00;99.90;;;;;;5138987;27;20133;-90
2022/10/21 02:26:29;;;;;;;38.55;22.17;;;12.90;99.90;;;;;;5145917;27;20055;-90
2022/10/21 02:28:57;;;;;;;36.40;21.00;;;12.90;99.90;;;;;;5138092;27;20042;-88
2022/10/21 02:31:37;;;;;;;33.22;20.73;;;12.90;99.90;;;;;;5150619;27;20035;-89
2022/10/21 02:34:28;;;;;;;38.58;21.20;;;12.90;99.90;;;;;;5136233;27;20130;-89
2022/10/21 02:37:19;;;;;;;33.00;20.02;;;12.90;99.90;;;;;;5132715;27;20183;-89
2022/10/21 02:39:59;;;;;;;34.05;21.08;;;12.80;99.90;;;;;;5132803;27;20042;-87
2022/10/21 02:42:31;;;;;;;40.00;21.75;;;12.80;99.90;;;;;;5150059;27;20047;-87
2022/10/21 02:45:00;;;;;;;43.97;21.13;;;12.90;99.90;;;;;;5137283;27;20061;-86
2022/10/21 02:47:25;;;;;;;33.22;20.25;;;12.80;99.90;;;;;;5145154;27;20046;-86
2022/10/21 02:49:51;;;;;;;37.15;20.35;;;12.90;99.90;;;;;;5114625;27;20039;-86
2022/10/21 02:52:17;;;;;;;38.28;21.23;;;12.90;99.90;;;;;;5134232;27;20035;-86
2022/10/21 02:54:42;;;;;;;37.35;21.08;;;12.90;99.90;;;;;;5114854;27;20042;-85
2022/10/21 02:57:08;;;;;;;38.50;21.63;;;12.90;99.90;;;;;;5115940;27;20042;-84
2022/10/21 02:59:34;;;;;;;39.72;21.58;;;12.90;99.90;;;;;;5135659;27;20041;-84
2022/10/21 03:01:59;;;;;;;42.25;21.85;;;12.90;99.90;;;;;;5097830;27;20043;-84
2022/10/21 03:04:25;;;;;;;38.70;21.38;;;12.90;99.90;;;;;;5118647;27;20076;-84
2022/10/21 03:06:51;;;;;;;34.60;20.77;;;12.90;99.90;;;;;;5118112;27;20035;-84
2022/10/21 03:09:16;;;;;;;33.67;20.17;;;12.90;99.90;;;;;;5100292;27;20054;-84
2022/10/21 03:11:42;;;;;;;32.85;19.45;;;12.90;99.90;;;;;;5118674;27;20069;-84
2022/10/21 03:14:08;;;;;;;41.42;20.88;;;12.90;99.90;;;;;;5102561;27;20109;-84
2022/10/21 03:16:33;;;;;;;35.92;20.05;;;12.90;99.90;;;;;;5134143;27;20530;-84
2022/10/21 03:18:59;;;;;;;41.75;20.38;;;12.90;99.90;;;;;;5136646;27;20501;-84
2022/10/21 03:21:25;;;;;;;37.25;21.13;;;13.00;99.90;;;;;;5135971;27;20092;-83
2022/10/21 03:23:51;;;;;;;37.25;20.52;;;12.90;99.90;;;;;;5117548;27;20046;-84
2022/10/21 03:26:16;;;;;;;38.30;21.23;;;12.90;99.90;;;;;;5106193;27;20435;-84
2022/10/21 03:28:42;;;;;;;40.45;20.15;;;13.10;99.90;;;;;;5118703;27;20050;-84
2022/10/21 03:31:08;;;;;;;40.92;21.65;;;12.90;99.90;;;;;;5110939;27;20036;-84
2022/10/21 03:33:33;;;;;;;37.28;21.30;;;13.00;99.90;;;;;;5136446;27;20126;-84
2022/10/21 03:35:59;;;;;;;35.47;21.05;;;13.00;99.90;;;;;;5119546;27;20035;-84
2022/10/21 03:38:25;;;;;;;42.70;21.35;;;13.00;99.90;;;;;;5138037;27;20034;-84
2022/10/21 03:40:50;;;;;;;38.97;20.40;;;13.00;99.90;;;;;;5122207;27;20035;-84
2022/10/21 03:43:16;;;;;;;40.47;21.58;;;13.00;99.90;;;;;;5137931;27;20121;-84
2022/10/21 03:45:42;;;;;;;48.47;21.90;;;13.00;99.90;;;;;;5152754;27;20048;-84
2022/10/21 03:48:08;;;;;;;46.60;23.20;;;13.10;99.90;;;;;;5118728;27;20039;-84
2022/10/21 03:50:33;;;;;;;39.05;21.92;;;13.10;99.90;;;;;;5103355;27;20039;-84
2022/10/21 03:52:59;;;;;;;41.10;21.95;;;13.20;99.90;;;;;;5153340;27;20034;-84
2022/10/21 03:55:25;;;;;;;45.22;22.70;;;13.20;99.90;;;;;;5139156;27;20037;-84
2022/10/21 03:57:52;;;;;;;46.95;23.90;;;13.20;99.90;;;;;;5126983;27;20113;-84
2022/10/21 04:00:18;;;;;;;41.85;22.25;;;13.20;99.90;;;;;;5157113;27;20034;-84
2022/10/21 04:02:44;;;;;;;50.90;23.70;;;13.20;99.90;;;;;;5155816;27;20127;-84
2022/10/21 04:05:10;;;;;;;52.13;24.45;;;13.20;99.90;;;;;;5138695;27;20070;-84
2022/10/21 04:07:37;;;;;;;42.92;22.70;;;13.20;99.90;;;;;;5132743;27;20122;-84
2022/10/21 04:10:04;;;;;;;48.50;24.75;;;13.20;99.90;;;;;;5137136;27;20498;-84
2022/10/21 04:12:30;;;;;;;50.13;24.67;;;13.20;99.90;;;;;;5134243;27;20066;-84
2022/10/21 04:14:56;;;;;;;52.03;24.60;;;13.20;99.90;;;;;;5102186;27;20034;-84
2022/10/21 04:17:21;;;;;;;48.75;23.40;;;13.20;99.90;;;;;;5117606;27;20038;-84
2022/10/21 04:19:47;;;;;;;51.35;24.38;;;13.20;99.90;;;;;;5146346;27;20054;-83
2022/10/21 04:22:13;;;;;;;41.97;23.40;;;13.30;99.90;;;;;;5130757;27;20164;-83
2022/10/21 04:24:39;;;;;;;46.75;23.65;;;13.30;99.90;;;;;;5139014;27;20038;-84
2022/10/21 04:27:04;;;;;;;50.55;25.27;;;13.30;99.90;;;;;;5101551;27;20439;-84
2022/10/21 04:29:30;;;;;;;50.42;24.75;;;13.30;99.90;;;;;;5117814;27;20423;-84
2022/10/21 04:31:56;;;;;;;45.70;24.48;;;13.30;99.90;;;;;;5136138;27;20096;-84
2022/10/21 04:34:22;;;;;;;49.80;23.52;;;13.30;99.90;;;;;;5121788;27;20062;-83
2022/10/21 04:36:48;;;;;;;50.00;24.45;;;13.30;99.90;;;;;;5102440;27;20479;-84
2022/10/21 04:39:13;;;;;;;53.15;23.92;;;13.30;99.90;;;;;;5135749;27;20027;-84
2022/10/21 04:41:39;;;;;;;42.85;23.95;;;13.20;99.90;;;;;;5146406;27;20039;-84
2022/10/21 04:44:07;;;;;;;48.30;24.73;;;13.20;99.90;;;;;;5135511;27;20034;-84
2022/10/21 04:46:33;;;;;;;47.55;25.15;;;13.20;99.90;;;;;;5137873;27;20061;-84
2022/10/21 04:48:59;;;;;;;46.85;24.92;;;13.20;99.90;;;;;;5121914;27;20502;-85
2022/10/21 04:51:24;;;;;;;51.35;24.80;;;13.20;99.90;;;;;;5121882;27;20459;-84
2022/10/21 04:53:50;;;;;;;48.42;26.40;;;13.20;99.90;;;;;;5133674;27;20034;-84
2022/10/21 04:56:16;;;;;;;54.25;26.38;;;13.20;99.90;;;;;;5134651;27;20031;-84
2022/10/21 04:58:41;;;;;;;48.50;25.45;;;13.20;99.90;;;;;;5138752;27;20045;-83
2022/10/21 05:01:07;;;;;;;48.75;24.55;;;13.20;99.90;;;;;;5135715;27;20113;-83
2022/10/21 05:03:33;;;;;;;49.58;25.35;;;13.20;99.90;;;;;;5121610;27;20502;-84
2022/10/21 05:05:58;;;;;;;44.83;23.98;;;13.20;99.90;;;;;;5132529;27;20034;-84
2022/10/21 05:08:24;;;;;;;44.47;24.67;;;13.20;99.90;;;;;;5136572;27;20482;-84
2022/10/21 05:10:57;;;;;;;48.70;24.33;;;13.20;99.90;;;;;;5093930;27;20491;-84
2022/10/21 05:13:23;;;;;;;53.58;24.30;;;13.20;99.90;;;;;;5152972;27;20035;-84
2022/10/21 05:15:49;;;;;;;45.25;24.17;;;13.10;99.90;;;;;;5138952;27;20544;-84
2022/10/21 05:18:14;;;;;;;40.17;22.55;;;13.20;99.90;;;;;;5135449;27;20034;-84
2022/10/21 05:20:41;;;;;;;43.95;24.23;;;13.10;99.90;;;;;;5114542;27;20073;-84
2022/10/21 05:23:07;;;;;;;47.85;23.45;;;13.10;99.90;;;;;;5134781;27;21842;-84
2022/10/21 05:25:33;;;;;;;43.20;22.50;;;13.10;99.90;;;;;;5097429;27;20100;-83
2022/10/21 05:27:58;;;;;;;40.70;23.10;;;13.10;99.90;;;;;;5131069;27;20047;-85
2022/10/21 05:30:24;;;;;;;45.38;22.83;;;13.10;99.90;;;;;;5147488;27;20054;-84
2022/10/21 05:32:50;;;;;;;38.80;22.00;;;13.10;99.90;;;;;;5139196;27;20042;-83
2022/10/21 05:35:15;;;;;;;44.28;22.92;;;13.10;99.90;;;;;;5125149;27;20076;-83
2022/10/21 05:37:41;;;;;;;43.80;23.23;;;13.10;99.90;;;;;;5119948;27;20035;-83
2022/10/21 05:40:07;;;;;;;41.15;21.52;;;13.00;99.90;;;;;;5125156;27;20045;-83
2022/10/21 05:42:33;;;;;;;42.70;23.15;;;13.00;99.90;;;;;;5122146;27;20057;-82
2022/10/21 05:44:58;;;;;;;38.78;23.63;;;13.00;99.90;;;;;;5144984;27;20042;-84
2022/10/21 05:47:24;;;;;;;38.78;21.83;;;13.00;99.90;;;;;;5135729;27;20039;-85
2022/10/21 05:49:50;;;;;;;43.67;22.27;;;13.10;99.90;;;;;;5138966;27;20082;-83
2022/10/21 05:52:15;;;;;;;53.60;24.88;;;13.10;99.90;;;;;;5132573;27;20041;-84
2022/10/21 05:54:41;;;;;;;37.95;23.38;;;13.10;99.90;;;;;;5120140;27;20035;-85
2022/10/21 05:57:07;;;;;;;47.08;23.15;;;13.10;99.90;;;;;;5104831;27;20091;-86
2022/10/21 05:59:32;;;;;;;35.47;22.70;;;13.10;99.90;;;;;;5136777;27;20045;-86
2022/10/21 06:01:58;;;;;;;48.45;22.75;;;13.10;99.90;;;;;;5155638;27;20431;-85
2022/10/21 06:04:24;;;;;;;44.30;21.63;;;13.10;99.90;;;;;;5118224;27;20050;-86
2022/10/21 06:06:50;;;;;;;37.67;21.75;;;13.20;99.90;;;;;;5112873;27;20050;-84
2022/10/21 06:09:15;;;;;;;41.33;22.15;;;13.20;99.90;;;;;;5112840;27;20060;-86
2022/10/21 06:11:41;;;;;;;45.33;22.10;;;13.20;99.90;;;;;;5132688;27;20117;-83
2022/10/21 06:14:07;;;;;;;39.50;21.60;;;13.20;99.90;;;;;;5116699;27;20038;-85
2022/10/21 06:16:35;;;;;;;36.47;21.02;;;13.30;99.90;;;;;;5134041;27;20444;-84
2022/10/21 06:19:02;;;;;;;37.97;20.75;;;13.20;99.90;;;;;;5101878;27;20038;-85
2022/10/21 06:21:28;;;;;;;43.13;20.98;;;13.20;99.90;;;;;;5117522;27;20069;-84
2022/10/21 06:23:54;;;;;;;41.38;20.85;;;13.20;99.90;;;;;;5106735;27;20035;-84
2022/10/21 06:26:20;;;;;;;39.47;20.85;;;13.20;99.90;;;;;;5133886;27;20517;-85
2022/10/21 06:28:45;;;;;;;37.30;20.45;;;13.20;99.90;;;;;;5133043;27;20042;-85
2022/10/21 06:31:17;;;;;;;38.35;20.15;;;13.20;99.90;;;;;;5115053;27;20134;-85
2022/10/21 06:33:43;;;;;;;38.22;20.92;;;13.20;99.90;;;;;;5151211;27;20066;-86
2022/10/21 06:36:09;;;;;;;38.17;20.08;;;13.10;99.90;;;;;;5115476;27;20426;-85
2022/10/21 06:38:36;;;;;;;34.40;19.58;;;13.10;99.90;;;;;;5117492;27;20027;-84
2022/10/21 06:41:04;;;;;;;33.05;18.92;;;13.10;99.90;;;;;;5126727;27;20094;-85
2022/10/21 06:43:30;;;;;;;32.25;19.13;;;13.10;99.90;;;;;;5137856;27;20168;-84
2022/10/21 06:46:04;;;;;;;32.92;18.00;;;13.10;99.90;;;;;;5131288;27;20088;-84
2022/10/21 06:48:30;;;;;;;43.67;18.75;;;13.10;99.90;;;;;;5130745;27;20047;-84
2022/10/21 06:51:01;;;;;;;34.13;18.75;;;13.00;99.90;;;;;;5127105;27;20039;-84
2022/10/21 06:53:27;;;;;;;34.10;18.65;;;13.00;99.90;;;;;;5130950;27;20030;-85
2022/10/21 06:56:19;;;;;;;33.25;17.48;;;13.00;99.90;;;;;;5149445;27;20110;-84
2022/10/21 06:58:48;;;;;;;36.13;19.08;;;13.00;99.90;;;;;;5107735;27;20039;-84
2022/10/21 07:01:19;;;;;;;32.50;19.00;;;13.00;99.90;;;;;;5153740;27;20039;-84
2022/10/21 07:03:45;;;;;;;31.17;18.42;;;13.00;99.90;;;;;;5137707;27;20065;-85
2022/10/21 07:06:11;;;;;;;36.25;19.55;;;13.00;99.90;;;;;;5131061;27;20051;-85
2022/10/21 07:08:38;;;;;;;38.13;19.23;;;13.00;99.90;;;;;;5137648;27;20058;-84
2022/10/21 07:11:05;;;;;;;36.08;19.77;;;13.00;99.90;;;;;;5131265;27;20054;-84
2022/10/21 07:13:31;;;;;;;35.28;18.60;;;12.90;99.90;;;;;;5141849;27;20038;-85
2022/10/21 07:16:19;;;;;;;34.33;19.25;;;13.00;99.90;;;;;;5140801;27;20121;-84
2022/10/21 07:18:45;;;;;;;41.80;19.88;;;12.90;99.90;;;;;;5134404;27;20165;-84
2022/10/21 07:21:16;;;;;;;38.58;18.60;;;12.90;99.90;;;;;;5124341;27;20042;-84
2022/10/21 07:23:44;;;;;;;30.80;17.92;;;12.90;99.90;;;;;;5139077;27;20073;-84
2022/10/21 07:26:09;;;;;;;33.08;18.77;;;12.90;99.90;;;;;;5158353;27;20516;-85
2022/10/21 07:28:35;;;;;;;33.20;19.50;;;12.90;99.90;;;;;;5153413;27;20036;-85
2022/10/21 07:31:03;;;;;;;31.40;18.23;;;12.90;99.90;;;;;;5138010;27;20482;-85
2022/10/21 07:33:29;;;;;;;42.85;19.27;;;12.90;99.90;;;;;;5138548;27;20055;-85
2022/10/21 07:36:25;;;;;;;33.60;18.70;;;12.90;99.90;;;;;;5120235;27;20478;-85
2022/10/21 07:38:53;;;;;;;37.85;18.73;;;12.90;99.90;;;;;;5139702;27;20096;-85
2022/10/21 07:41:23;;;;;;;31.30;17.70;;;13.10;99.90;;;;;;5141279;27;20043;-85
2022/10/21 07:43:49;;;;;;;36.50;18.70;;;13.00;99.90;;;;;;5132771;27;20045;-85
2022/10/21 07:46:16;;;;;;;32.40;18.65;;;13.00;99.90;;;;;;5130771;27;20038;-85
2022/10/21 07:48:42;;;;;;;35.90;18.15;;;13.10;99.90;;;;;;5157707;27;20099;-85
2022/10/21 07:51:11;;;;;;;35.58;18.52;;;13.10;99.90;;;;;;5133811;27;20039;-85
2022/10/21 07:53:37;;;;;;;33.33;19.20;;;13.10;99.90;;;;;;5136064;27;20056;-85
2022/10/21 07:56:14;;;;;;;33.38;18.60;;;13.20;99.90;;;;;;5138887;27;20138;-86
2022/10/21 07:58:41;;;;;;;32.42;18.75;;;13.30;99.90;;;;;;5150762;27;20555;-85
2022/10/21 08:01:08;;;;;;;33.75;18.52;;;13.30;99.90;;;;;;5140153;27;20031;-85
2022/10/21 08:03:35;;;;;;;30.30;18.33;;;13.40;99.90;;;;;;5106442;27;20074;-85
2022/10/21 08:06:01;;;;;;;32.88;19.05;;;13.40;99.90;;;;;;5139975;27;20507;-85
2022/10/21 08:08:27;;;;;;;29.35;18.73;;;13.50;99.90;;;;;;5153811;27;20558;-85
2022/10/21 08:10:54;;;;;;;30.92;17.70;;;13.60;99.90;;;;;;5138319;27;20133;-85
2022/10/21 08:13:20;;;;;;;30.48;17.95;;;13.60;99.90;;;;;;5119315;27;20152;-85
2022/10/21 08:15:48;;;;;;;29.85;17.33;;;13.70;99.90;;;;;;5123051;27;20490;-85
2022/10/21 08:18:15;;;;;;;36.95;17.75;;;13.80;99.90;;;;;;5133808;27;20100;-85
2022/10/21 08:20:42;;;;;;;29.40;17.48;;;13.90;99.90;;;;;;5136051;27;20494;-85
2022/10/21 08:23:09;;;;;;;29.48;17.05;;;13.90;99.90;;;;;;5125893;27;20043;-84
2022/10/21 08:25:35;;;;;;;28.23;17.00;;;14.00;99.90;;;;;;5138881;27;20043;-85
2022/10/21 08:28:03;;;;;;;28.02;16.92;;;14.10;99.90;;;;;;5141092;27;20438;-85
2022/10/21 08:30:30;;;;;;;21.75;14.88;;;14.20;99.90;;;;;;5138214;27;20087;-85
2022/10/21 08:32:59;;;;;;;32.05;15.55;;;14.20;99.90;;;;;;5114728;27;20534;-85
2022/10/21 08:35:26;;;;;;;18.98;13.80;;;14.30;99.90;;;;;;5123677;27;20525;-85
2022/10/21 08:37:52;;;;;;;22.35;14.95;;;14.30;99.90;;;;;;5140306;27;20043;-85
2022/10/21 08:40:20;;;;;;;25.90;15.50;;;14.30;99.90;;;;;;5139434;27;20053;-85
2022/10/21 08:42:46;;;;;;;24.38;15.60;;;14.40;99.90;;;;;;5122185;27;20083;-85
2022/10/21 08:45:26;;;;;;;24.02;14.07;;;14.40;99.90;;;;;;5138658;27;20479;-85
2022/10/21 08:47:58;;;;;;;22.25;14.27;;;14.50;99.90;;;;;;5157669;27;20053;-84
2022/10/21 08:50:29;;;;;;;22.17;14.10;;;14.50;99.90;;;;;;5136426;27;20049;-85
2022/10/21 08:53:04;;;;;;;23.05;13.07;;;14.60;99.90;;;;;;5156647;27;20424;-85
2022/10/21 08:55:39;;;;;;;22.97;13.07;;;14.60;99.90;;;;;;5139670;27;20047;-85
2022/10/21 08:58:10;;;;;;;20.80;13.07;;;14.70;99.90;;;;;;5153961;27;20038;-85
2022/10/21 09:00:46;;;;;;;19.30;12.88;;;14.70;99.90;;;;;;5155626;27;20039;-83
2022/10/21 09:03:33;;;;;;;18.00;12.70;;;14.70;99.90;;;;;;5139413;27;20035;-83
2022/10/21 09:06:08;;;;;;;21.25;12.55;;;14.80;99.90;;;;;;5124208;27;20055;-85
2022/10/21 09:08:34;;;;;;;16.05;12.55;;;14.80;99.90;;;;;;5156613;27;20069;-84
2022/10/21 09:11:37;;;;;;;20.00;12.50;;;14.80;99.90;;;;;;5138250;27;20532;-84
2022/10/21 09:14:02;;;;;;;19.75;11.73;;;14.90;99.90;;;;;;5132286;27;20035;-84
2022/10/21 09:16:41;;;;;;;17.80;11.50;;;15.00;99.90;;;;;;5151738;27;20042;-83
2022/10/21 09:19:35;;;;;;;20.65;11.20;;;15.00;99.90;;;;;;5149641;27;20035;-84
2022/10/21 09:22:35;;;;;;;17.02;10.82;;;15.10;99.90;;;;;;5138343;27;20050;-84
2022/10/21 09:25:19;;;;;;;15.63;11.40;;;15.20;99.90;;;;;;5131378;27;20551;-84
2022/10/21 09:27:44;;;;;;;17.30;10.25;;;15.20;99.90;;;;;;5154178;27;20170;-83
2022/10/21 09:30:17;;;;;;;16.50;10.63;;;15.30;99.90;;;;;;5101873;27;20098;-85
2022/10/21 09:32:50;;;;;;;17.45;10.45;;;15.30;99.90;;;;;;5137998;27;20584;-84
2022/10/21 09:35:48;;;;;;;15.93;10.50;;;15.30;99.90;;;;;;5138638;27;20042;-84
2022/10/21 09:38:21;;;;;;;16.20;9.80;;;15.30;99.90;;;;;;5154629;27;20110;-84
2022/10/21 09:40:50;;;;;;;20.25;10.85;;;15.40;99.90;;;;;;5154427;27;20711;-84
2022/10/21 09:43:22;;;;;;;17.90;10.27;;;15.40;99.90;;;;;;5151747;27;20071;-84
2022/10/21 09:45:48;;;;;;;16.10;10.30;;;15.40;99.90;;;;;;5155347;27;20080;-83
2022/10/21 09:48:20;;;;;;;17.38;10.30;;;15.40;99.90;;;;;;5136914;27;20046;-84
2022/10/21 09:50:57;;;;;;;18.08;10.85;;;15.40;99.90;;;;;;5132657;27;20049;-83
2022/10/21 09:53:32;;;;;;;15.65;10.27;;;15.40;99.90;;;;;;5132992;27;20111;-84
2022/10/21 09:56:02;;;;;;;14.20;10.40;;;15.50;99.90;;;;;;5137580;27;20042;-85
2022/10/21 09:58:37;;;;;;;17.00;10.20;;;15.50;99.90;;;;;;5137494;27;20083;-85
2022/10/21 10:01:05;;;;;;;17.25;10.55;;;15.50;99.90;;;;;;5133713;27;20038;-82
2022/10/21 10:03:39;;;;;;;19.55;10.60;;;15.50;99.90;;;;;;5130282;27;20039;-87
2022/10/21 10:06:05;;;;;;;16.27;9.88;;;15.60;99.90;;;;;;5149653;27;20030;-85
2022/10/21 10:08:33;;;;;;;14.80;9.15;;;15.60;99.90;;;;;;5137761;27;20046;-84
2022/10/21 10:11:10;;;;;;;15.93;9.73;;;15.60;99.90;;;;;;5152345;27;20046;-85
2022/10/21 10:13:39;;;;;;;13.85;9.38;;;15.60;99.90;;;;;;5132632;27;20046;-83
2022/10/21 10:16:26;;;;;;;16.70;9.85;;;15.70;99.90;;;;;;5132982;27;20079;-83
2022/10/21 10:19:17;;;;;;;16.73;10.88;;;15.70;99.90;;;;;;5133104;27;20038;-83
2022/10/21 10:21:43;;;;;;;16.33;9.52;;;15.70;99.90;;;;;;5149838;27;20078;-83
2022/10/21 10:24:18;;;;;;;13.35;8.57;;;15.70;99.90;;;;;;5153180;27;20031;-84
2022/10/21 10:26:45;;;;;;;18.30;9.35;;;15.80;99.90;;;;;;5135985;27;20071;-83
2022/10/21 10:29:14;;;;;;;15.88;8.82;;;15.80;99.90;;;;;;5154334;27;20115;-84
2022/10/21 10:31:46;;;;;;;12.02;8.75;;;15.80;99.90;;;;;;5132942;27;20130;-84
2022/10/21 10:34:27;;;;;;;17.00;9.35;;;15.80;99.90;;;;;;5133544;27;20031;-84
2022/10/21 10:37:06;;;;;;;12.57;8.57;;;15.90;99.90;;;;;;5123532;27;20042;-83
2022/10/21 10:39:37;;;;;;;13.73;9.15;;;16.00;99.90;;;;;;5131620;27;20035;-82
2022/10/21 10:42:03;;;;;;;21.75;9.38;;;16.00;99.90;;;;;;5150043;27;20482;-83
2022/10/21 10:44:40;;;;;;;11.02;7.88;;;16.00;99.90;;;;;;5135176;27;20039;-84
2022/10/21 10:47:16;;;;;;;14.75;8.23;;;16.10;99.90;;;;;;5152680;27;20451;-83
2022/10/21 10:49:44;;;;;;;11.60;8.43;;;16.10;99.90;;;;;;5136482;27;20045;-83
2022/10/21 10:52:10;;;;;;;12.80;7.97;;;16.10;99.90;;;;;;5135767;27;20095;-84
2022/10/21 10:54:41;;;;;;;11.40;7.65;;;16.10;99.90;;;;;;5134438;27;20038;-83
2022/10/21 10:57:22;;;;;;;12.50;8.40;;;16.20;99.90;;;;;;5130485;27;20049;-88
2022/10/21 10:59:55;;;;;;;15.80;7.88;;;16.20;99.90;;;;;;5145846;27;20039;-91
2022/10/21 11:02:32;;;;;;;14.05;8.93;;;16.20;99.90;;;;;;5136663;27;20113;-82
2022/10/21 11:05:20;;;;;;;12.02;7.18;;;16.20;99.90;;;;;;5134087;27;20398;-84
2022/10/21 11:08:12;;;;;;;12.93;7.68;;;16.20;99.90;;;;;;5129489;27;20070;-84
2022/10/21 11:10:43;;;;;;;14.05;7.88;;;16.30;99.90;;;;;;5134253;27;20059;-84
2022/10/21 11:13:13;;;;;;;12.85;7.72;;;16.30;99.90;;;;;;5131587;27;20494;-84
2022/10/21 11:16:10;;;;;;;11.18;7.32;;;16.30;99.90;;;;;;5131077;28;20039;-84
2022/10/21 11:19:06;;;;;;;12.10;7.22;;;16.30;99.90;;;;;;5136168;27;20175;-84
2022/10/21 11:21:50;;;;;;;13.00;7.25;;;16.40;99.90;;;;;;5131263;27;20039;-86
2022/10/21 11:24:36;;;;;;;12.48;7.60;;;16.40;99.90;;;;;;5129458;27;20027;-84
2022/10/21 11:27:10;;;;;;;12.63;6.63;;;16.40;99.90;;;;;;5153249;27;20049;-85
2022/10/21 11:29:54;;;;;;;15.25;7.72;;;16.40;99.90;;;;;;5133400;27;20502;-84
2022/10/21 11:32:38;;;;;;;12.25;7.70;;;16.40;99.90;;;;;;5141280;27;20130;-85
2022/10/21 11:35:27;;;;;;;14.13;7.18;;;16.40;99.90;;;;;;5135295;27;20035;-84
2022/10/21 11:37:59;;;;;;;16.02;6.90;;;16.40;99.90;;;;;;5118015;27;20043;-89
2022/10/21 11:40:29;;;;;;;14.23;7.35;;;16.50;99.90;;;;;;5133670;27;20122;-89
2022/10/21 11:43:00;;;;;;;12.43;6.90;;;16.50;99.90;;;;;;5137636;27;20049;-89
2022/10/21 11:45:42;;;;;;;13.68;6.78;;;16.50;99.90;;;;;;5149116;27;20537;-89
2022/10/21 11:48:26;;;;;;;12.30;7.07;;;16.50;99.90;;;;;;5154956;27;20062;-89
2022/10/21 11:50:55;;;;;;;12.35;7.35;;;16.50;99.90;;;;;;5136680;27;20038;-89
2022/10/21 11:53:45;;;;;;;10.43;7.13;;;16.50;99.90;;;;;;5140296;27;20370;-88
2022/10/21 11:56:57;;;;;;;16.70;7.57;;;16.60;99.90;;;;;;5136565;27;20066;-89
2022/10/21 11:59:56;;;;;;;13.93;7.03;;;16.60;99.90;;;;;;5138282;27;20114;-90
2022/10/21 12:02:31;;;;;;;11.52;7.72;;;16.60;99.90;;;;;;5136806;27;20038;-89
2022/10/21 12:05:33;;;;;;;17.07;7.33;;;16.60;99.90;;;;;;5133484;27;20757;-89
2022/10/21 12:08:34;;;;;;;12.65;7.68;;;16.60;99.90;;;;;;5140455;27;20039;-90
2022/10/21 12:11:09;;;;;;;11.52;6.75;;;16.70;99.90;;;;;;5113019;27;20143;-89
2022/10/21 12:13:46;;;;;;;14.52;6.75;;;16.70;99.90;;;;;;5138245;27;20045;-89
2022/10/21 12:16:33;;;;;;;16.20;7.15;;;16.70;99.90;;;;;;5141072;27;20122;-89
2022/10/21 12:19:04;;;;;;;16.30;7.05;;;16.70;99.90;;;;;;5129290;27;20088;-87
2022/10/21 12:21:35;;;;;;;15.95;7.10;;;16.70;99.90;;;;;;5135176;27;20505;-87
2022/10/21 12:24:29;;;;;;;14.95;7.20;;;16.80;99.90;;;;;;5152812;27;20058;-86
2022/10/21 12:27:02;;;;;;;10.50;6.85;;;16.70;99.90;;;;;;5138456;27;20035;-86
2022/10/21 12:30:03;;;;;;;11.93;7.10;;;16.70;99.90;;;;;;5135910;27;20039;-86
2022/10/21 12:32:43;;;;;;;13.63;7.43;;;16.70;99.90;;;;;;5136400;27;20443;-85
2022/10/21 12:35:27;;;;;;;15.43;7.03;;;16.70;99.90;;;;;;5152821;27;20147;-85
2022/10/21 12:37:52;;;;;;;15.05;7.13;;;16.80;99.90;;;;;;5152650;27;20035;-85
2022/10/21 12:40:24;;;;;;;18.60;7.70;;;16.80;99.90;;;;;;5153047;27;20035;-84
2022/10/21 12:43:05;;;;;;;9.80;6.88;;;16.80;99.90;;;;;;5136810;27;20039;-84
2022/10/21 12:45:36;;;;;;;9.60;6.43;;;16.80;99.90;;;;;;5133813;27;20039;-86
2022/10/21 12:48:26;;;;;;;10.35;7.18;;;16.90;99.90;;;;;;5138787;27;20463;-85
2022/10/21 12:51:03;;;;;;;18.83;6.70;;;16.90;99.90;;;;;;5138190;27;20039;-83